createdAt,value
2022-07-29T00:00:02.371Z,3.00
2022-07-29T00:02:33.674Z,3.00
2022-07-29T00:05:03.256Z,3.40
2022-07-29T00:07:32.955Z,3.00
2022-07-29T00:12:29.852Z,3.22
2022-07-29T00:14:58.736Z,2.80
2022-07-29T00:17:26.909Z,2.85
2022-07-29T00:19:54.745Z,2.97
2022-07-29T00:22:22.441Z,2.83
2022-07-29T00:24:51.412Z,2.70
2022-07-29T00:27:21.003Z,3.00
2022-07-29T00:29:49.688Z,2.85
2022-07-29T00:32:17.266Z,2.65
2022-07-29T00:35:03.381Z,2.80
2022-07-29T00:37:30.930Z,2.70
2022-07-29T00:39:58.335Z,2.90
2022-07-29T00:42:27.129Z,3.30
2022-07-29T00:44:58.206Z,2.97
2022-07-29T00:47:26.410Z,3.10
2022-07-29T00:49:54.604Z,3.22
2022-07-29T00:52:22.912Z,3.22
2022-07-29T00:54:50.882Z,3.58
2022-07-29T00:57:18.727Z,2.97
2022-07-29T00:59:47.380Z,3.17
2022-07-29T01:02:15.279Z,3.47
2022-07-29T01:04:43.139Z,3.03
2022-07-29T01:07:11.853Z,3.38
2022-07-29T01:09:45.895Z,3.88
2022-07-29T01:12:25.663Z,4.25
2022-07-29T01:14:55.230Z,3.42
2022-07-29T01:17:27.730Z,3.60
2022-07-29T01:20:02.279Z,3.65
2022-07-29T01:22:35.717Z,3.53
2022-07-29T01:25:42.459Z,3.95
2022-07-29T01:28:36.443Z,3.42
2022-07-29T01:31:07.659Z,3.58
2022-07-29T01:33:52.114Z,4.07
2022-07-29T01:36:35.055Z,4.03
2022-07-29T01:39:12.065Z,3.78
2022-07-29T01:41:58.850Z,4.05
2022-07-29T01:44:36.672Z,4.15
2022-07-29T01:47:13.656Z,4.25
2022-07-29T01:49:47.756Z,4.93
2022-07-29T01:52:39.070Z,4.05
2022-07-29T01:55:15.216Z,4.00
2022-07-29T01:57:48.815Z,3.83
2022-07-29T02:00:17.661Z,4.00
2022-07-29T02:02:48.298Z,4.15
2022-07-29T02:05:20.330Z,4.32
2022-07-29T02:07:49.661Z,3.72
2022-07-29T02:10:21.698Z,4.15
2022-07-29T02:12:56.090Z,3.72
2022-07-29T02:15:29.737Z,4.18
2022-07-29T02:18:09.240Z,4.10
2022-07-29T02:20:39.109Z,4.05
2022-07-29T02:23:08.657Z,4.15
2022-07-29T02:25:37.631Z,4.10
2022-07-29T02:28:08.373Z,4.65
2022-07-29T02:30:43.580Z,3.63
2022-07-29T02:33:15.701Z,4.10
2022-07-29T02:35:45.646Z,3.42
2022-07-29T02:38:35.331Z,4.07
2022-07-29T02:41:09.516Z,3.67
2022-07-29T02:43:38.275Z,4.15
2022-07-29T02:46:28.301Z,4.22
2022-07-29T02:49:10.942Z,4.07
2022-07-29T02:51:47.669Z,3.72
2022-07-29T02:54:43.491Z,3.60
2022-07-29T02:57:23.223Z,4.00
2022-07-29T02:59:55.656Z,3.97
2022-07-29T03:02:26.219Z,4.20
2022-07-29T03:04:58.349Z,3.70
2022-07-29T03:07:27.134Z,3.83
2022-07-29T03:09:57.106Z,4.20
2022-07-29T03:12:24.957Z,4.53
2022-07-29T03:14:54.959Z,4.30
2022-07-29T03:17:25.043Z,4.20
2022-07-29T03:19:53.789Z,4.05
2022-07-29T03:22:21.715Z,4.10
2022-07-29T03:24:49.234Z,4.40
2022-07-29T03:27:18.599Z,4.63
2022-07-29T03:29:50.044Z,4.00
2022-07-29T03:32:19.977Z,4.20
2022-07-29T03:34:51.507Z,4.05
2022-07-29T03:37:19.280Z,4.10
2022-07-29T03:39:48.527Z,3.90
2022-07-29T03:42:20.008Z,3.67
2022-07-29T03:44:50.807Z,3.80
2022-07-29T03:47:43.449Z,4.32
2022-07-29T03:50:16.640Z,4.28
2022-07-29T03:52:45.357Z,4.55
2022-07-29T03:55:14.619Z,4.50
2022-07-29T03:57:43.130Z,3.95
2022-07-29T04:00:11.883Z,4.57
2022-07-29T04:02:40.350Z,4.25
2022-07-29T04:05:14.345Z,3.88
2022-07-29T04:07:45.995Z,3.72
2022-07-29T04:10:17.233Z,3.80
2022-07-29T04:12:44.618Z,3.80
2022-07-29T04:15:12.517Z,3.78
2022-07-29T04:17:39.934Z,3.70
2022-07-29T04:20:08.118Z,3.92
2022-07-29T04:22:35.561Z,4.05
2022-07-29T04:25:04.201Z,4.25
2022-07-29T04:27:31.818Z,3.85
2022-07-29T04:29:59.192Z,3.65
2022-07-29T04:32:27.157Z,3.72
2022-07-29T04:34:54.584Z,3.50
2022-07-29T04:37:21.898Z,4.20
2022-07-29T04:39:49.288Z,5.25
2022-07-29T04:42:16.651Z,5.30
2022-07-29T04:44:44.745Z,4.95
2022-07-29T04:47:13.034Z,4.72
2022-07-29T04:49:40.536Z,4.82
2022-07-29T04:52:07.938Z,6.32
2022-07-29T04:54:35.343Z,6.63
2022-07-29T04:57:02.692Z,6.50
2022-07-29T04:59:30.374Z,7.20
2022-07-29T05:01:57.737Z,6.38
2022-07-29T05:04:25.188Z,7.38
2022-07-29T05:06:52.625Z,8.63
2022-07-29T05:09:19.941Z,9.10
2022-07-29T05:11:47.413Z,9.50
2022-07-29T05:14:15.116Z,8.63
2022-07-29T05:16:44.327Z,8.30
2022-07-29T05:19:14.402Z,8.95
2022-07-29T05:21:42.450Z,7.88
2022-07-29T05:24:09.750Z,8.70
2022-07-29T05:26:37.137Z,6.60
2022-07-29T05:29:04.497Z,7.35
2022-07-29T05:31:31.931Z,6.85
2022-07-29T05:33:59.296Z,6.72
2022-07-29T05:36:27.112Z,6.90
2022-07-29T05:38:54.489Z,6.20
2022-07-29T05:41:22.118Z,6.15
2022-07-29T05:43:49.486Z,5.78
2022-07-29T05:46:17.077Z,6.30
2022-07-29T05:48:44.513Z,6.07
2022-07-29T05:51:11.971Z,6.22
2022-07-29T05:53:39.305Z,6.40
2022-07-29T05:56:07.399Z,6.55
2022-07-29T05:58:34.777Z,6.60
2022-07-29T06:01:02.554Z,6.93
2022-07-29T06:03:30.033Z,6.63
2022-07-29T06:05:57.522Z,6.03
2022-07-29T06:08:24.850Z,6.95
2022-07-29T06:10:52.288Z,7.07
2022-07-29T06:13:21.875Z,6.82
2022-07-29T06:15:49.554Z,7.35
2022-07-29T06:18:16.965Z,6.80
2022-07-29T06:20:44.299Z,7.47
2022-07-29T06:23:11.717Z,8.05
2022-07-29T06:25:41.276Z,7.28
2022-07-29T06:28:08.718Z,7.72
2022-07-29T06:30:36.335Z,7.68
2022-07-29T06:33:03.981Z,7.10
2022-07-29T06:35:39.081Z,6.55
2022-07-29T06:38:31.461Z,6.45
2022-07-29T06:41:18.116Z,6.95
2022-07-29T06:43:52.465Z,7.63
2022-07-29T06:46:23.500Z,7.43
2022-07-29T06:48:53.128Z,7.07
2022-07-29T06:51:22.344Z,7.57
2022-07-29T06:54:00.120Z,6.78
2022-07-29T06:56:39.226Z,6.88
2022-07-29T06:59:10.113Z,7.03
2022-07-29T07:01:40.151Z,6.85
2022-07-29T07:04:09.985Z,6.40
2022-07-29T07:06:38.838Z,5.88
2022-07-29T07:09:06.557Z,6.57
2022-07-29T07:11:34.877Z,6.40
2022-07-29T07:14:14.499Z,7.05
2022-07-29T07:16:42.187Z,5.78
2022-07-29T07:21:36.756Z,6.68
2022-07-29T07:24:04.479Z,5.47
2022-07-29T07:26:32.109Z,10.55
2022-07-29T07:29:01.272Z,5.68
2022-07-29T07:31:28.864Z,5.75
2022-07-29T07:33:56.312Z,6.10
2022-07-29T07:36:24.316Z,5.75
2022-07-29T07:41:18.837Z,6.70
2022-07-29T07:43:46.304Z,6.00
2022-07-29T07:46:13.919Z,5.82
2022-07-29T07:48:41.716Z,4.90
2022-07-29T07:51:09.343Z,6.18
2022-07-29T07:53:36.749Z,6.50
2022-07-29T07:56:11.013Z,6.70
2022-07-29T07:58:39.824Z,5.80
2022-07-29T08:01:08.133Z,6.05
2022-07-29T08:03:36.046Z,5.68
2022-07-29T08:06:04.754Z,6.85
2022-07-29T08:08:32.390Z,5.78
2022-07-29T08:11:02.223Z,5.85
2022-07-29T08:13:33.526Z,6.60
2022-07-29T08:16:02.549Z,7.03
2022-07-29T08:23:32.940Z,5.82
2022-07-29T08:26:14.303Z,5.45
2022-07-29T08:28:46.679Z,5.78
2022-07-29T08:31:17.211Z,5.93
2022-07-29T08:33:45.538Z,5.00
2022-07-29T08:36:14.068Z,5.47
2022-07-29T08:38:41.518Z,5.65
2022-07-29T08:41:09.003Z,4.85
2022-07-29T08:43:38.416Z,5.18
2022-07-29T08:46:05.953Z,5.05
2022-07-29T08:48:33.934Z,4.90
2022-07-29T08:51:05.167Z,4.78
2022-07-29T08:53:33.251Z,4.30
2022-07-29T08:56:01.012Z,4.50
2022-07-29T08:58:33.169Z,4.82
2022-07-29T09:01:04.842Z,4.68
2022-07-29T09:03:38.343Z,4.30
2022-07-29T09:06:06.386Z,3.90
2022-07-29T09:08:34.579Z,4.57
2022-07-29T09:11:05.393Z,4.47
2022-07-29T09:13:33.212Z,4.70
2022-07-29T09:16:02.576Z,4.20
2022-07-29T09:18:41.425Z,4.50
2022-07-29T09:21:30.555Z,4.82
2022-07-29T09:24:10.230Z,4.43
2022-07-29T09:26:42.858Z,5.15
2022-07-29T09:29:10.534Z,4.35
2022-07-29T09:31:43.902Z,4.97
2022-07-29T09:34:12.682Z,4.30
2022-07-29T09:36:45.472Z,4.70
2022-07-29T09:39:13.916Z,5.10
2022-07-29T09:41:55.571Z,4.95
2022-07-29T09:44:24.585Z,5.28
2022-07-29T09:47:06.741Z,5.10
2022-07-29T09:50:00.795Z,4.90
2022-07-29T09:52:30.019Z,4.93
2022-07-29T09:55:08.429Z,5.03
2022-07-29T09:57:35.991Z,5.50
2022-07-29T10:00:08.129Z,4.95
2022-07-29T10:02:46.966Z,4.55
2022-07-29T10:05:22.553Z,5.05
2022-07-29T10:10:26.389Z,5.90
2022-07-29T10:13:01.832Z,5.18
2022-07-29T10:15:41.704Z,4.82
2022-07-29T10:20:36.890Z,5.15
2022-07-29T10:23:04.839Z,5.60
2022-07-29T10:25:32.700Z,5.25
2022-07-29T10:28:00.305Z,5.47
2022-07-29T10:30:28.402Z,5.00
2022-07-29T10:33:19.250Z,5.57
2022-07-29T10:35:58.682Z,5.10
2022-07-29T10:38:35.709Z,5.68
2022-07-29T10:41:27.270Z,5.60
2022-07-29T10:44:01.647Z,5.80
2022-07-29T10:46:35.516Z,5.07
2022-07-29T10:49:11.366Z,5.72
2022-07-29T10:52:01.886Z,5.55
2022-07-29T10:54:52.605Z,5.38
2022-07-29T10:57:53.994Z,5.60
2022-07-29T11:00:18.760Z,5.57
2022-07-29T11:02:53.030Z,5.47
2022-07-29T11:05:32.295Z,5.75
2022-07-29T11:08:19.605Z,5.22
2022-07-29T11:10:54.346Z,5.25
2022-07-29T11:17:00.308Z,5.05
2022-07-29T11:19:30.468Z,5.65
2022-07-29T11:21:59.269Z,5.40
2022-07-29T11:24:29.991Z,5.13
2022-07-29T11:30:04.825Z,5.57
2022-07-29T11:32:39.839Z,5.13
2022-07-29T11:35:38.394Z,5.13
2022-07-29T11:38:28.631Z,5.28
2022-07-29T11:41:25.212Z,4.97
2022-07-29T11:43:59.128Z,5.05
2022-07-29T11:46:53.917Z,4.50
2022-07-29T11:49:32.628Z,4.82
2022-07-29T11:52:05.595Z,4.78
2022-07-29T11:54:57.276Z,5.30
2022-07-29T11:57:35.965Z,5.40
2022-07-29T12:03:03.860Z,5.38
2022-07-29T12:05:38.470Z,5.03
2022-07-29T12:07:01.386Z,5.40
2022-07-29T12:08:23.643Z,5.20
2022-07-29T12:13:21.410Z,5.10
2022-07-29T12:16:00.109Z,5.07
2022-07-29T12:18:29.037Z,4.60
2022-07-29T12:21:04.711Z,4.90
2022-07-29T12:23:35.763Z,4.97
2022-07-29T12:26:10.576Z,5.35
2022-07-29T12:28:40.072Z,5.55
2022-07-29T12:31:15.193Z,5.38
2022-07-29T12:34:05.052Z,5.00
2022-07-29T12:36:33.442Z,4.97
2022-07-29T12:39:01.170Z,5.10
2022-07-29T12:41:30.058Z,4.63
2022-07-29T12:43:57.852Z,5.50
2022-07-29T12:46:25.924Z,5.10
2022-07-29T12:48:58.359Z,4.90
2022-07-29T12:51:33.659Z,5.18
2022-07-29T12:56:46.839Z,5.05
2022-07-29T12:59:18.754Z,5.05
2022-07-29T13:01:51.552Z,5.35
2022-07-29T13:04:33.832Z,5.20
2022-07-29T13:07:08.345Z,5.47
2022-07-29T13:09:43.690Z,5.20
2022-07-29T13:12:13.061Z,4.90
2022-07-29T13:14:45.632Z,5.20
2022-07-29T13:17:14.481Z,5.13
2022-07-29T13:19:53.169Z,4.57
2022-07-29T13:22:26.572Z,4.90
2022-07-29T13:25:04.676Z,4.63
2022-07-29T13:27:34.052Z,4.80
2022-07-29T13:30:03.036Z,5.05
2022-07-29T13:32:32.190Z,5.05
2022-07-29T13:35:05.777Z,5.20
2022-07-29T13:37:36.643Z,5.07
2022-07-29T13:40:05.151Z,4.85
2022-07-29T13:42:39.480Z,4.78
2022-07-29T13:45:08.308Z,5.00
2022-07-29T13:47:36.087Z,4.85
2022-07-29T13:50:06.768Z,5.25
2022-07-29T13:52:36.903Z,4.53
2022-07-29T13:55:09.243Z,4.90
2022-07-29T13:57:36.791Z,5.10
2022-07-29T14:00:05.227Z,5.13
2022-07-29T14:02:36.059Z,4.85
2022-07-29T14:05:08.313Z,4.85
2022-07-29T14:07:37.487Z,5.03
2022-07-29T14:10:05.836Z,4.50
2022-07-29T14:12:33.472Z,4.75
2022-07-29T14:15:01.280Z,4.78
2022-07-29T14:17:28.940Z,5.18
2022-07-29T14:19:56.345Z,4.75
2022-07-29T14:22:26.175Z,5.65
2022-07-29T14:24:54.045Z,5.18
2022-07-29T14:27:38.025Z,5.10
2022-07-29T14:30:07.383Z,4.97
2022-07-29T14:32:34.816Z,4.72
2022-07-29T14:35:02.403Z,4.88
2022-07-29T14:37:37.553Z,4.90
2022-07-29T14:40:10.212Z,4.97
2022-07-29T14:42:38.644Z,4.45
2022-07-29T14:45:07.971Z,4.68
2022-07-29T14:47:35.844Z,4.70
2022-07-29T14:50:04.209Z,5.15
2022-07-29T14:52:31.872Z,4.82
2022-07-29T14:54:59.493Z,4.50
2022-07-29T14:57:27.099Z,5.43
2022-07-29T14:59:54.664Z,4.85
2022-07-29T15:02:25.592Z,4.70
2022-07-29T15:04:59.214Z,4.82
2022-07-29T15:07:26.942Z,4.95
2022-07-29T15:09:58.061Z,4.85
2022-07-29T15:12:27.759Z,4.85
2022-07-29T15:14:56.072Z,5.03
2022-07-29T15:17:23.880Z,4.57
2022-07-29T15:19:51.417Z,5.22
2022-07-29T15:22:18.992Z,4.82
2022-07-29T15:24:59.880Z,4.80
2022-07-29T15:27:27.480Z,4.45
2022-07-29T15:29:54.834Z,4.70
2022-07-29T15:32:22.507Z,4.63
2022-07-29T15:34:52.664Z,5.03
2022-07-29T15:37:20.597Z,4.80
2022-07-29T15:39:48.103Z,4.95
2022-07-29T15:42:17.782Z,4.72
2022-07-29T15:44:45.362Z,4.70
2022-07-29T15:47:12.916Z,5.13
2022-07-29T15:49:46.549Z,4.30
2022-07-29T15:52:25.877Z,4.55
2022-07-29T15:54:56.203Z,4.88
2022-07-29T15:57:24.692Z,4.80
2022-07-29T15:59:54.333Z,4.70
2022-07-29T16:02:21.933Z,4.97
2022-07-29T16:04:51.504Z,5.10
2022-07-29T16:07:19.645Z,5.13
2022-07-29T16:09:52.780Z,5.40
2022-07-29T16:12:22.573Z,4.93
2022-07-29T16:14:51.280Z,4.97
2022-07-29T16:17:22.998Z,5.38
2022-07-29T16:19:50.723Z,5.65
2022-07-29T16:22:21.709Z,5.32
2022-07-29T16:24:49.442Z,5.38
2022-07-29T16:27:17.178Z,6.45
2022-07-29T16:29:47.947Z,6.25
2022-07-29T16:32:22.150Z,6.22
2022-07-29T16:34:50.211Z,6.85
2022-07-29T16:37:17.684Z,7.00
2022-07-29T16:39:46.212Z,7.47
2022-07-29T16:42:31.009Z,7.55
2022-07-29T16:45:04.584Z,7.75
2022-07-29T16:47:33.532Z,8.57
2022-07-29T16:50:03.888Z,9.02
2022-07-29T16:52:32.555Z,8.57
2022-07-29T16:54:59.869Z,8.05
2022-07-29T16:57:27.241Z,7.63
2022-07-29T16:59:54.628Z,7.35
2022-07-29T17:02:22.103Z,8.95
2022-07-29T17:04:49.661Z,8.00
2022-07-29T17:07:17.069Z,7.78
2022-07-29T17:09:44.404Z,8.60
2022-07-29T17:12:11.846Z,7.75
2022-07-29T17:14:39.351Z,7.70
2022-07-29T17:17:13.572Z,8.20
2022-07-29T17:19:43.441Z,9.50
2022-07-29T17:22:15.868Z,8.52
2022-07-29T17:24:47.547Z,7.95
2022-07-29T17:27:16.622Z,7.88
2022-07-29T17:29:44.646Z,8.20
2022-07-29T17:32:12.346Z,6.85
2022-07-29T17:34:40.899Z,7.22
2022-07-29T17:37:10.871Z,7.40
2022-07-29T17:39:41.154Z,7.68
2022-07-29T17:42:10.452Z,6.78
2022-07-29T17:44:38.586Z,7.43
2022-07-29T17:47:07.954Z,7.20
2022-07-29T17:49:44.136Z,7.20
2022-07-29T17:52:11.535Z,6.70
2022-07-29T17:54:38.879Z,6.20
2022-07-29T17:57:06.175Z,7.07
2022-07-29T17:59:33.522Z,5.95
2022-07-29T18:02:00.914Z,7.20
2022-07-29T18:04:29.134Z,6.95
2022-07-29T18:06:56.873Z,6.53
2022-07-29T18:09:25.633Z,6.47
2022-07-29T18:11:53.039Z,5.75
2022-07-29T18:14:29.201Z,6.15
2022-07-29T18:16:56.851Z,5.85
2022-07-29T18:19:24.715Z,5.90
2022-07-29T18:21:55.186Z,6.35
2022-07-29T18:24:27.390Z,5.93
2022-07-29T18:26:54.886Z,5.82
2022-07-29T18:29:22.300Z,5.88
2022-07-29T18:31:50.129Z,5.88
2022-07-29T18:34:17.782Z,6.00
2022-07-29T18:36:46.087Z,6.22
2022-07-29T18:39:20.788Z,5.45
2022-07-29T18:41:51.356Z,6.35
2022-07-29T18:46:51.865Z,5.60
2022-07-29T18:49:20.519Z,6.13
2022-07-29T18:51:48.637Z,7.00
2022-07-29T18:54:20.053Z,6.55
2022-07-29T18:56:47.562Z,6.30
2022-07-29T18:59:17.051Z,6.25
2022-07-29T19:01:44.629Z,6.15
2022-07-29T19:04:12.335Z,6.88
2022-07-29T19:06:40.804Z,6.30
2022-07-29T19:09:11.137Z,6.15
2022-07-29T19:11:38.981Z,6.90
2022-07-29T19:14:06.735Z,6.88
2022-07-29T19:16:34.422Z,6.00
2022-07-29T19:19:01.846Z,6.70
2022-07-29T19:21:29.714Z,7.05
2022-07-29T19:24:00.111Z,6.60
2022-07-29T19:29:04.358Z,7.95
2022-07-29T19:31:31.813Z,7.13
2022-07-29T19:33:59.332Z,8.13
2022-07-29T19:36:27.405Z,6.93
2022-07-29T19:38:54.862Z,7.32
2022-07-29T19:41:22.299Z,7.95
2022-07-29T19:43:52.854Z,7.43
2022-07-29T19:46:21.520Z,7.88
2022-07-29T19:48:49.180Z,7.53
2022-07-29T19:51:17.456Z,8.63
2022-07-29T19:53:44.774Z,7.68
2022-07-29T19:56:12.115Z,8.45
2022-07-29T19:58:40.789Z,7.88
2022-07-29T20:01:10.217Z,9.27
2022-07-29T20:03:40.027Z,9.35
2022-07-29T20:06:08.428Z,9.15
2022-07-29T20:08:36.393Z,9.52
2022-07-29T20:11:03.836Z,9.55
2022-07-29T20:13:33.142Z,8.90
2022-07-29T20:16:02.081Z,9.20
2022-07-29T20:18:29.561Z,9.48
2022-07-29T20:20:57.614Z,9.73
2022-07-29T20:23:25.166Z,10.55
2022-07-29T20:25:52.689Z,9.48
2022-07-29T20:28:22.610Z,9.30
2022-07-29T20:30:50.016Z,9.38
2022-07-29T20:33:17.561Z,10.02
2022-07-29T20:35:44.862Z,10.18
2022-07-29T20:38:15.135Z,10.30
2022-07-29T20:40:45.697Z,8.55
2022-07-29T20:43:13.284Z,8.77
2022-07-29T20:45:40.646Z,8.35
2022-07-29T20:48:08.165Z,7.40
2022-07-29T20:50:35.928Z,7.20
2022-07-29T20:53:03.287Z,6.90
2022-07-29T20:55:32.119Z,7.50
2022-07-29T20:57:59.522Z,7.30
2022-07-29T21:00:27.059Z,8.18
2022-07-29T21:02:54.597Z,8.23
2022-07-29T21:05:22.033Z,9.48
2022-07-29T21:07:49.410Z,10.48
2022-07-29T21:10:18.320Z,9.65
2022-07-29T21:12:46.596Z,7.90
2022-07-29T21:15:20.562Z,7.80
2022-07-29T21:17:48.576Z,8.05
2022-07-29T21:25:12.052Z,5.45
2022-07-29T21:27:58.043Z,6.03
2022-07-29T21:30:25.411Z,6.43
2022-07-29T21:32:52.759Z,6.28
2022-07-29T21:36:01.944Z,6.43
2022-07-29T21:38:07.563Z,6.65
2022-07-29T21:40:34.866Z,6.72
2022-07-29T21:43:02.366Z,6.60
2022-07-29T21:45:30.418Z,6.45
2022-07-29T21:47:57.726Z,6.80
2022-07-29T21:50:25.206Z,6.47
2022-07-29T21:52:52.662Z,7.22
2022-07-29T21:55:20.625Z,7.40
2022-07-29T21:57:49.911Z,8.30
2022-07-29T22:00:17.253Z,8.95
2022-07-29T22:02:45.476Z,8.65
2022-07-29T22:05:13.492Z,10.15
2022-07-29T22:07:55.568Z,9.13
2022-07-29T22:10:25.877Z,9.60
2022-07-29T22:12:55.069Z,9.70
2022-07-29T22:15:23.125Z,10.07
2022-07-29T22:17:50.909Z,10.43
2022-07-29T22:20:18.383Z,9.93
2022-07-29T22:22:46.704Z,9.88
2022-07-29T22:25:14.391Z,9.85
2022-07-29T22:27:41.740Z,10.00
2022-07-29T22:30:09.887Z,9.40
2022-07-29T22:32:37.271Z,9.60
2022-07-29T22:35:05.092Z,8.98
2022-07-29T22:37:32.487Z,8.60
2022-07-29T22:39:59.906Z,8.98
2022-07-29T22:42:27.225Z,9.13
2022-07-29T22:44:54.698Z,8.38
2022-07-29T22:47:38.851Z,8.88
2022-07-29T22:50:09.753Z,8.15
2022-07-29T22:52:37.214Z,8.02
2022-07-29T22:55:05.002Z,7.60
2022-07-29T22:57:32.483Z,8.02
2022-07-29T23:00:02.518Z,7.53
2022-07-29T23:02:30.094Z,7.82
2022-07-29T23:04:57.498Z,8.38
2022-07-29T23:07:25.041Z,7.35
2022-07-29T23:09:52.573Z,6.90
2022-07-29T23:12:23.203Z,7.22
2022-07-29T23:14:50.682Z,7.07
2022-07-29T23:17:18.304Z,7.47
2022-07-29T23:19:45.848Z,7.53
2022-07-29T23:22:13.254Z,7.85
2022-07-29T23:24:41.200Z,7.10
2022-07-29T23:27:08.666Z,7.30
2022-07-29T23:29:36.925Z,6.78
2022-07-29T23:32:04.914Z,7.30
2022-07-29T23:34:32.702Z,7.18
2022-07-29T23:37:00.554Z,6.85
2022-07-29T23:39:28.217Z,7.03
2022-07-29T23:41:56.256Z,6.90
2022-07-29T23:44:23.649Z,7.40
2022-07-29T23:46:51.412Z,7.28
2022-07-29T23:49:19.152Z,7.20
2022-07-29T23:51:46.828Z,7.28
2022-07-29T23:54:14.503Z,6.95
2022-07-29T23:56:41.961Z,7.13
2022-07-29T23:59:09.457Z,7.03
